sensor_id;sensor_type;location;lat;lon;timestamp;pressure;altitude;pressure_sealevel;temperature;humidity
25650;BME280;13505;45.196;5.696;2023-06-26T04:31:47;99411.59;;;21.61;66.29
25650;BME280;13505;45.196;5.696;2023-06-26T04:36:37;99409.50;;;21.65;66.35
25650;BME280;13505;45.196;5.696;2023-06-26T04:41:29;99413.31;;;21.62;67.88
25650;BME280;13505;45.196;5.696;2023-06-26T04:46:19;99421.03;;;21.55;67.76
25650;BME280;13505;45.196;5.696;2023-06-26T04:51:10;99416.81;;;21.53;68.97
25650;BME280;13505;45.196;5.696;2023-06-26T04:56:00;99418.63;;;21.52;68.94
25650;BME280;13505;45.196;5.696;2023-06-26T05:00:51;99424.91;;;21.63;68.97
25650;BME280;13505;45.196;5.696;2023-06-26T05:05:41;99419.25;;;21.66;68.47
25650;BME280;13505;45.196;5.696;2023-06-26T05:10:31;99420.91;;;21.47;69.24
25650;BME280;13505;45.196;5.696;2023-06-26T05:15:22;99418.47;;;21.75;68.34
25650;BME280;13505;45.196;5.696;2023-06-26T05:20:12;99414.66;;;21.87;67.53
25650;BME280;13505;45.196;5.696;2023-06-26T05:25:04;99411.19;;;21.66;68.25
25650;BME280;13505;45.196;5.696;2023-06-26T05:29:55;99418.25;;;21.57;68.53
25650;BME280;13505;45.196;5.696;2023-06-26T05:34:48;99421.78;;;21.88;66.94
25650;BME280;13505;45.196;5.696;2023-06-26T05:39:39;99423.59;;;21.98;66.30
25650;BME280;13505;45.196;5.696;2023-06-26T05:44:30;99417.97;;;22.01;66.22
25650;BME280;13505;45.196;5.696;2023-06-26T05:49:20;99418.72;;;22.23;65.83
25650;BME280;13505;45.196;5.696;2023-06-26T05:54:11;99409.81;;;22.62;64.85
25650;BME280;13505;45.196;5.696;2023-06-26T05:59:04;99410.63;;;22.92;63.35
25650;BME280;13505;45.196;5.696;2023-06-26T06:03:56;99412.53;;;23.19;62.52
25650;BME280;13505;45.196;5.696;2023-06-26T06:08:46;99398.22;;;23.66;59.84
25650;BME280;13505;45.196;5.696;2023-06-26T06:13:36;99402.22;;;24.27;58.44
25650;BME280;13505;45.196;5.696;2023-06-26T06:18:27;99403.94;;;23.81;59.56
25650;BME280;13505;45.196;5.696;2023-06-26T06:23:17;99401.13;;;24.56;57.08
25650;BME280;13505;45.196;5.696;2023-06-26T06:28:07;99393.97;;;25.09;55.38
25650;BME280;13505;45.196;5.696;2023-06-26T06:32:58;99404.59;;;24.66;55.72
25650;BME280;13505;45.196;5.696;2023-06-26T06:37:48;99400.69;;;25.40;53.85
25650;BME280;13505;45.196;5.696;2023-06-26T06:42:39;99396.72;;;25.52;52.30
25650;BME280;13505;45.196;5.696;2023-06-26T06:47:29;99394.41;;;25.57;53.47
25650;BME280;13505;45.196;5.696;2023-06-26T06:52:20;99387.31;;;25.64;52.04
25650;BME280;13505;45.196;5.696;2023-06-26T06:57:10;99383.75;;;25.56;52.77
25650;BME280;13505;45.196;5.696;2023-06-26T07:02:00;99386.66;;;26.88;51.28
25650;BME280;13505;45.196;5.696;2023-06-26T07:06:50;99388.19;;;27.48;49.36
25650;BME280;13505;45.196;5.696;2023-06-26T07:11:41;99394.50;;;27.80;47.80
25650;BME280;13505;45.196;5.696;2023-06-26T07:16:31;99398.81;;;27.97;46.04
25650;BME280;13505;45.196;5.696;2023-06-26T07:21:21;99396.00;;;28.37;45.98
25650;BME280;13505;45.196;5.696;2023-06-26T07:26:14;99385.13;;;28.14;45.13
25650;BME280;13505;45.196;5.696;2023-06-26T07:31:05;99380.72;;;28.13;46.10
25650;BME280;13505;45.196;5.696;2023-06-26T07:35:56;99386.09;;;28.68;44.23
25650;BME280;13505;45.196;5.696;2023-06-26T07:40:46;99386.72;;;29.08;42.58
25650;BME280;13505;45.196;5.696;2023-06-26T07:45:36;99378.00;;;28.98;43.15
25650;BME280;13505;45.196;5.696;2023-06-26T07:50:27;99374.84;;;29.55;41.52
25650;BME280;13505;45.196;5.696;2023-06-26T07:55:17;99373.78;;;30.07;40.18
25650;BME280;13505;45.196;5.696;2023-06-26T08:00:08;99361.41;;;30.27;41.13
25650;BME280;13505;45.196;5.696;2023-06-26T08:04:58;99362.22;;;29.84;41.19
25650;BME280;13505;45.196;5.696;2023-06-26T08:09:48;99366.41;;;30.01;41.98
25650;BME280;13505;45.196;5.696;2023-06-26T08:14:39;99370.31;;;30.14;40.92
25650;BME280;13505;45.196;5.696;2023-06-26T08:19:29;99372.84;;;28.50;44.13
25650;BME280;13505;45.196;5.696;2023-06-26T08:24:19;99365.63;;;30.29;42.06
25650;BME280;13505;45.196;5.696;2023-06-26T08:29:11;99362.22;;;30.99;40.98
25650;BME280;13505;45.196;5.696;2023-06-26T08:34:02;99360.19;;;31.43;40.54
25650;BME280;13505;45.196;5.696;2023-06-26T08:38:53;99355.38;;;32.08;39.33
25650;BME280;13505;45.196;5.696;2023-06-26T08:43:43;99355.81;;;32.25;39.25
25650;BME280;13505;45.196;5.696;2023-06-26T08:48:35;99339.69;;;32.50;38.74
25650;BME280;13505;45.196;5.696;2023-06-26T08:53:43;99339.44;;;32.79;38.28
25650;BME280;13505;45.196;5.696;2023-06-26T08:58:37;99337.38;;;32.54;40.09
25650;BME280;13505;45.196;5.696;2023-06-26T09:03:27;99335.91;;;32.44;40.39
25650;BME280;13505;45.196;5.696;2023-06-26T09:08:18;99333.97;;;32.99;38.50
25650;BME280;13505;45.196;5.696;2023-06-26T09:13:09;99336.88;;;33.11;38.05
25650;BME280;13505;45.196;5.696;2023-06-26T09:17:59;99335.94;;;33.37;37.85
25650;BME280;13505;45.196;5.696;2023-06-26T09:22:49;99343.06;;;33.52;37.95
25650;BME280;13505;45.196;5.696;2023-06-26T09:27:42;99339.16;;;33.73;37.80
25650;BME280;13505;45.196;5.696;2023-06-26T09:32:36;99336.94;;;33.50;38.12
25650;BME280;13505;45.196;5.696;2023-06-26T09:37:26;99324.47;;;33.67;37.84
25650;BME280;13505;45.196;5.696;2023-06-26T09:42:17;99338.72;;;33.76;38.09
25650;BME280;13505;45.196;5.696;2023-06-26T09:47:07;99327.81;;;33.69;37.56
25650;BME280;13505;45.196;5.696;2023-06-26T09:52:00;99311.56;;;33.81;38.47
25650;BME280;13505;45.196;5.696;2023-06-26T09:56:51;99321.13;;;34.30;37.27
25650;BME280;13505;45.196;5.696;2023-06-26T10:01:45;99314.38;;;34.32;37.21
25650;BME280;13505;45.196;5.696;2023-06-26T10:06:41;99321.69;;;34.64;37.19
25650;BME280;13505;45.196;5.696;2023-06-26T10:11:47;99314.94;;;34.67;37.08
25650;BME280;13505;45.196;5.696;2023-06-26T10:16:41;99318.31;;;34.36;37.35
25650;BME280;13505;45.196;5.696;2023-06-26T10:21:34;99320.34;;;34.73;36.85
25650;BME280;13505;45.196;5.696;2023-06-26T10:26:26;99316.28;;;34.57;36.84
25650;BME280;13505;45.196;5.696;2023-06-26T10:31:20;99313.31;;;34.77;37.09
25650;BME280;13505;45.196;5.696;2023-06-26T10:36:19;99319.25;;;33.59;38.35
25650;BME280;13505;45.196;5.696;2023-06-26T10:41:11;99313.13;;;34.98;36.60
25650;BME280;13505;45.196;5.696;2023-06-26T10:46:02;99316.41;;;35.25;36.34
25650;BME280;13505;45.196;5.696;2023-06-26T10:50:53;99314.97;;;35.04;37.69
25650;BME280;13505;45.196;5.696;2023-06-26T10:55:54;99305.06;;;35.21;36.13
25650;BME280;13505;45.196;5.696;2023-06-26T11:00:50;99317.19;;;34.70;35.95
25650;BME280;13505;45.196;5.696;2023-06-26T11:05:41;99305.06;;;35.40;35.65
25650;BME280;13505;45.196;5.696;2023-06-26T11:10:52;99309.22;;;35.61;34.54
25650;BME280;13505;45.196;5.696;2023-06-26T11:15:43;99308.06;;;35.51;35.38
25650;BME280;13505;45.196;5.696;2023-06-26T11:20:53;99309.69;;;35.21;35.98
25650;BME280;13505;45.196;5.696;2023-06-26T11:25:43;99308.72;;;35.15;35.70
25650;BME280;13505;45.196;5.696;2023-06-26T11:30:34;99308.13;;;35.62;34.69
25650;BME280;13505;45.196;5.696;2023-06-26T11:35:25;99297.78;;;35.65;34.18
25650;BME280;13505;45.196;5.696;2023-06-26T11:40:22;99306.28;;;35.75;34.80
25650;BME280;13505;45.196;5.696;2023-06-26T11:45:17;99301.56;;;35.94;34.51
25650;BME280;13505;45.196;5.696;2023-06-26T11:50:15;99301.66;;;35.87;34.39
25650;BME280;13505;45.196;5.696;2023-06-26T11:55:05;99307.69;;;35.66;33.55
25650;BME280;13505;45.196;5.696;2023-06-26T11:59:56;99299.84;;;35.69;34.48
25650;BME280;13505;45.196;5.696;2023-06-26T12:04:46;99295.06;;;35.65;34.52
25650;BME280;13505;45.196;5.696;2023-06-26T12:09:42;99297.47;;;35.85;33.76
25650;BME280;13505;45.196;5.696;2023-06-26T12:14:34;99295.00;;;35.95;33.28
25650;BME280;13505;45.196;5.696;2023-06-26T12:19:25;99301.34;;;35.96;33.43
25650;BME280;13505;45.196;5.696;2023-06-26T12:24:19;99296.63;;;35.84;33.47
25650;BME280;13505;45.196;5.696;2023-06-26T12:29:11;99295.50;;;36.04;33.07
25650;BME280;13505;45.196;5.696;2023-06-26T12:34:12;99297.97;;;35.82;33.35
25650;BME280;13505;45.196;5.696;2023-06-26T12:39:04;99279.19;;;35.79;32.83
25650;BME280;13505;45.196;5.696;2023-06-26T12:43:58;99289.84;;;35.75;32.96
25650;BME280;13505;45.196;5.696;2023-06-26T12:48:48;99286.19;;;35.62;34.20
25650;BME280;13505;45.196;5.696;2023-06-26T12:53:39;99277.19;;;35.86;33.12
25650;BME280;13505;45.196;5.696;2023-06-26T12:58:29;99272.47;;;35.62;34.32
25650;BME280;13505;45.196;5.696;2023-06-26T13:03:20;99279.34;;;35.53;34.83
25650;BME280;13505;45.196;5.696;2023-06-26T13:08:13;99279.75;;;35.57;34.60
25650;BME280;13505;45.196;5.696;2023-06-26T13:13:07;99270.38;;;35.46;35.13
25650;BME280;13505;45.196;5.696;2023-06-26T13:17:58;99266.09;;;35.50;35.11
25650;BME280;13505;45.196;5.696;2023-06-26T13:22:48;99261.06;;;35.78;33.60
25650;BME280;13505;45.196;5.696;2023-06-26T13:27:39;99263.59;;;35.48;35.03
25650;BME280;13505;45.196;5.696;2023-06-26T13:32:29;99256.50;;;35.29;34.65
25650;BME280;13505;45.196;5.696;2023-06-26T13:37:19;99248.97;;;35.24;35.30
25650;BME280;13505;45.196;5.696;2023-06-26T13:42:10;99254.03;;;35.39;35.22
25650;BME280;13505;45.196;5.696;2023-06-26T13:47:06;99244.75;;;35.52;33.99
25650;BME280;13505;45.196;5.696;2023-06-26T13:51:57;99251.28;;;35.39;34.13
25650;BME280;13505;45.196;5.696;2023-06-26T13:56:47;99256.41;;;34.98;34.65
25650;BME280;13505;45.196;5.696;2023-06-26T14:01:37;99231.63;;;34.93;34.75
25650;BME280;13505;45.196;5.696;2023-06-26T14:06:28;99229.97;;;34.73;35.48
25650;BME280;13505;45.196;5.696;2023-06-26T14:11:20;99237.47;;;34.97;33.65
25650;BME280;13505;45.196;5.696;2023-06-26T14:16:11;99240.22;;;34.78;34.62
25650;BME280;13505;45.196;5.696;2023-06-26T14:21:01;99239.69;;;34.88;34.83
25650;BME280;13505;45.196;5.696;2023-06-26T14:25:52;99231.84;;;34.73;35.08
25650;BME280;13505;45.196;5.696;2023-06-26T14:30:43;99224.41;;;34.36;35.03
25650;BME280;13505;45.196;5.696;2023-06-26T14:35:33;99234.66;;;34.66;34.80
25650;BME280;13505;45.196;5.696;2023-06-26T14:40:23;99229.13;;;34.29;34.92
25650;BME280;13505;45.196;5.696;2023-06-26T14:45:14;99222.00;;;34.28;34.48
25650;BME280;13505;45.196;5.696;2023-06-26T14:50:05;99219.75;;;34.18;34.31
25650;BME280;13505;45.196;5.696;2023-06-26T14:54:55;99220.50;;;34.06;35.40
25650;BME280;13505;45.196;5.696;2023-06-26T14:59:48;99209.28;;;34.15;34.36
25650;BME280;13505;45.196;5.696;2023-06-26T15:04:39;99211.75;;;33.65;35.82
25650;BME280;13505;45.196;5.696;2023-06-26T15:09:29;99210.88;;;33.97;35.48
25650;BME280;13505;45.196;5.696;2023-06-26T15:14:22;99218.03;;;33.66;35.84
25650;BME280;13505;45.196;5.696;2023-06-26T15:19:12;99211.75;;;33.65;35.10
25650;BME280;13505;45.196;5.696;2023-06-26T15:24:03;99225.72;;;33.82;34.86
25650;BME280;13505;45.196;5.696;2023-06-26T15:28:53;99214.63;;;33.38;35.88
25650;BME280;13505;45.196;5.696;2023-06-26T15:33:45;99223.69;;;33.39;35.70
25650;BME280;13505;45.196;5.696;2023-06-26T15:38:35;99214.06;;;33.30;36.25
25650;BME280;13505;45.196;5.696;2023-06-26T15:43:25;99214.72;;;33.25;35.49
25650;BME280;13505;45.196;5.696;2023-06-26T15:48:16;99209.09;;;33.13;35.75
25650;BME280;13505;45.196;5.696;2023-06-26T15:53:06;99210.22;;;32.98;36.63
25650;BME280;13505;45.196;5.696;2023-06-26T15:57:56;99209.16;;;32.99;36.47
25650;BME280;13505;45.196;5.696;2023-06-26T16:02:47;99197.00;;;32.89;36.73
25650;BME280;13505;45.196;5.696;2023-06-26T16:07:38;99206.06;;;32.82;36.73
25650;BME280;13505;45.196;5.696;2023-06-26T16:12:28;99205.66;;;32.79;36.56
25650;BME280;13505;45.196;5.696;2023-06-26T16:17:19;99212.66;;;32.61;37.04
25650;BME280;13505;45.196;5.696;2023-06-26T16:22:09;99207.03;;;32.29;36.59
25650;BME280;13505;45.196;5.696;2023-06-26T16:26:59;99212.50;;;32.29;36.56
25650;BME280;13505;45.196;5.696;2023-06-26T16:31:50;99201.16;;;32.25;36.31
25650;BME280;13505;45.196;5.696;2023-06-26T16:36:40;99198.88;;;32.02;37.03
25650;BME280;13505;45.196;5.696;2023-06-26T16:41:30;99202.84;;;31.93;36.40
25650;BME280;13505;45.196;5.696;2023-06-26T16:46:21;99204.69;;;31.65;37.68
25650;BME280;13505;45.196;5.696;2023-06-26T16:51:11;99217.88;;;31.55;38.20
25650;BME280;13505;45.196;5.696;2023-06-26T16:56:02;99214.72;;;31.44;37.80
25650;BME280;13505;45.196;5.696;2023-06-26T17:00:52;99210.44;;;31.15;38.59
25650;BME280;13505;45.196;5.696;2023-06-26T17:05:42;99210.59;;;31.00;38.69
25650;BME280;13505;45.196;5.696;2023-06-26T17:10:33;99216.97;;;30.78;39.44
25650;BME280;13505;45.196;5.696;2023-06-26T17:15:23;99215.59;;;30.96;38.55
25650;BME280;13505;45.196;5.696;2023-06-26T17:20:13;99214.47;;;30.77;38.99
25650;BME280;13505;45.196;5.696;2023-06-26T17:25:04;99223.13;;;30.59;39.43
25650;BME280;13505;45.196;5.696;2023-06-26T17:29:55;99222.19;;;30.38;39.99
25650;BME280;13505;45.196;5.696;2023-06-26T17:34:45;99229.75;;;30.14;40.50
25650;BME280;13505;45.196;5.696;2023-06-26T17:39:37;99212.66;;;30.20;40.05
25650;BME280;13505;45.196;5.696;2023-06-26T17:44:27;99238.88;;;30.06;40.37
25650;BME280;13505;45.196;5.696;2023-06-26T17:49:18;99249.81;;;29.91;40.20
25650;BME280;13505;45.196;5.696;2023-06-26T17:54:09;99247.16;;;29.76;40.28
25650;BME280;13505;45.196;5.696;2023-06-26T17:58:59;99254.22;;;29.71;40.12
25650;BME280;13505;45.196;5.696;2023-06-26T18:03:49;99263.66;;;29.53;39.77
25650;BME280;13505;45.196;5.696;2023-06-26T18:08:40;99264.72;;;29.37;40.45
25650;BME280;13505;45.196;5.696;2023-06-26T18:13:30;99267.72;;;29.27;40.69
25650;BME280;13505;45.196;5.696;2023-06-26T18:18:21;99292.09;;;29.05;41.07
25650;BME280;13505;45.196;5.696;2023-06-26T18:23:12;99286.97;;;28.95;41.02
25650;BME280;13505;45.196;5.696;2023-06-26T18:28:02;99305.19;;;28.87;41.00
25650;BME280;13505;45.196;5.696;2023-06-26T18:32:52;99301.53;;;28.79;40.96
25650;BME280;13505;45.196;5.696;2023-06-26T18:37:44;99301.63;;;28.71;41.17
25650;BME280;13505;45.196;5.696;2023-06-26T18:42:34;99313.97;;;28.59;41.76
25650;BME280;13505;45.196;5.696;2023-06-26T18:47:25;99335.56;;;28.52;42.31
25650;BME280;13505;45.196;5.696;2023-06-26T18:52:15;99337.00;;;28.39;42.23
25650;BME280;13505;45.196;5.696;2023-06-26T18:57:06;99337.81;;;28.25;43.04
25650;BME280;13505;45.196;5.696;2023-06-26T19:01:57;99342.13;;;28.11;43.36
25650;BME280;13505;45.196;5.696;2023-06-26T19:06:47;99354.66;;;28.12;43.01
25650;BME280;13505;45.196;5.696;2023-06-26T19:11:37;99348.63;;;28.02;43.41
25650;BME280;13505;45.196;5.696;2023-06-26T19:16:28;99354.47;;;27.90;43.75
25650;BME280;13505;45.196;5.696;2023-06-26T19:21:18;99364.34;;;27.83;44.05
25650;BME280;13505;45.196;5.696;2023-06-26T19:26:12;99362.69;;;27.74;44.05
25650;BME280;13505;45.196;5.696;2023-06-26T19:31:02;99366.63;;;27.63;44.04
25650;BME280;13505;45.196;5.696;2023-06-26T19:35:53;99367.84;;;27.60;44.53
25650;BME280;13505;45.196;5.696;2023-06-26T19:40:43;99378.88;;;27.50;44.73
25650;BME280;13505;45.196;5.696;2023-06-26T19:45:34;99390.75;;;27.41;44.60
25650;BME280;13505;45.196;5.696;2023-06-26T19:50:24;99382.34;;;27.27;45.60
25650;BME280;13505;45.196;5.696;2023-06-26T19:55:15;99395.91;;;27.19;45.21
25650;BME280;13505;45.196;5.696;2023-06-26T20:00:06;99395.25;;;27.09;45.51
25650;BME280;13505;45.196;5.696;2023-06-26T20:04:56;99402.03;;;27.05;45.20
25650;BME280;13505;45.196;5.696;2023-06-26T20:09:46;99398.66;;;26.94;46.09
25650;BME280;13505;45.196;5.696;2023-06-26T20:14:37;99402.72;;;26.90;45.83
25650;BME280;13505;45.196;5.696;2023-06-26T20:19:27;99397.13;;;26.83;46.26
25650;BME280;13505;45.196;5.696;2023-06-26T20:24:17;99398.47;;;26.79;46.29
25650;BME280;13505;45.196;5.696;2023-06-26T20:29:08;99408.44;;;26.70;46.67
25650;BME280;13505;45.196;5.696;2023-06-26T20:33:58;99410.31;;;26.61;46.82
25650;BME280;13505;45.196;5.696;2023-06-26T20:38:49;99417.44;;;26.46;47.55
25650;BME280;13505;45.196;5.696;2023-06-26T20:43:39;99417.25;;;26.47;47.56
25650;BME280;13505;45.196;5.696;2023-06-26T20:48:32;99413.69;;;26.39;48.35
25650;BME280;13505;45.196;5.696;2023-06-26T20:53:22;99410.34;;;26.45;48.30
25650;BME280;13505;45.196;5.696;2023-06-26T20:58:12;99423.97;;;26.27;48.88
25650;BME280;13505;45.196;5.696;2023-06-26T21:03:03;99415.69;;;26.20;48.49
25650;BME280;13505;45.196;5.696;2023-06-26T21:07:53;99423.81;;;26.20;48.46
25650;BME280;13505;45.196;5.696;2023-06-26T21:12:43;99421.88;;;26.04;48.62
25650;BME280;13505;45.196;5.696;2023-06-26T21:17:34;99431.00;;;26.03;48.57
25650;BME280;13505;45.196;5.696;2023-06-26T21:22:24;99426.78;;;25.92;49.33
25650;BME280;13505;45.196;5.696;2023-06-26T21:27:14;99430.44;;;25.83;49.56
25650;BME280;13505;45.196;5.696;2023-06-26T21:32:05;99438.03;;;25.79;49.61
25650;BME280;13505;45.196;5.696;2023-06-26T21:36:55;99432.41;;;25.64;50.03
25650;BME280;13505;45.196;5.696;2023-06-26T21:41:46;99438.63;;;25.56;49.91
25650;BME280;13505;45.196;5.696;2023-06-26T21:46:36;99443.81;;;25.49;49.81
25650;BME280;13505;45.196;5.696;2023-06-26T21:51:26;99455.06;;;25.45;49.53
25650;BME280;13505;45.196;5.696;2023-06-26T21:56:17;99446.59;;;25.40;49.21
